Time;durP1;ratioP1;P1;durP2;ratioP2;P2;SDS_P1;SDS_P2;PMS_P1;PMS_P2;Temp;Humidity;BMP_temperature;BMP_pressure;BME280_temperature;BME280_humidity;BME280_pressure;Samples;Min_cycle;Max_cycle;Signal;HPM_P1;HPM_P2
2022/10/04 00:00:46;;;;;;;15.60;7.40;;;9.70;99.90;;;;;;5034753;28;20112;-69
2022/10/04 00:03:23;;;;;;;11.87;6.70;;;9.80;99.90;;;;;;5019217;28;20053;-69
2022/10/04 00:05:54;;;;;;;;;;;9.80;99.90;;;;;;5037329;28;20064;-70
2022/10/04 00:08:34;;;;;;;12.02;6.82;;;9.80;99.90;;;;;;5036130;28;19905;-69
2022/10/04 00:11:04;;;;;;;8.05;6.13;;;9.70;99.90;;;;;;5036516;28;20028;-68
2022/10/04 00:13:30;;;;;;;13.07;6.28;;;9.70;99.90;;;;;;5036489;28;20470;-68
2022/10/04 00:15:56;;;;;;;;;;;9.80;99.90;;;;;;5036775;28;20073;-69
2022/10/04 00:18:39;;;;;;;10.25;6.15;;;9.70;99.90;;;;;;5036254;28;19905;-69
2022/10/04 00:21:07;;;;;;;12.07;6.85;;;9.80;99.90;;;;;;5036156;28;20053;-69
2022/10/04 00:23:36;;;;;;;12.90;6.40;;;9.80;99.90;;;;;;5036806;28;20026;-69
2022/10/04 00:26:25;;;;;;;9.93;5.90;;;9.90;99.90;;;;;;5035655;28;20565;-70
2022/10/04 00:28:51;;;;;;;11.73;6.95;;;9.80;99.90;;;;;;5015174;28;20041;-69
2022/10/04 00:31:19;;;;;;;;;;;9.80;99.90;;;;;;5036576;28;20017;-69
2022/10/04 00:34:08;;;;;;;9.70;5.85;;;9.70;99.90;;;;;;5034654;28;19905;-69
2022/10/04 00:36:45;;;;;;;14.93;6.10;;;9.80;99.90;;;;;;5035780;28;20085;-69
2022/10/04 00:39:10;;;;;;;;;;;9.80;99.90;;;;;;5034463;28;20030;-69
2022/10/04 00:41:48;;;;;;;11.25;6.22;;;9.70;99.90;;;;;;5034401;28;19936;-68
2022/10/04 00:44:37;;;;;;;11.88;6.25;;;9.70;99.90;;;;;;5035188;28;20033;-69
2022/10/04 00:47:40;;;;;;;10.60;6.10;;;9.70;99.90;;;;;;5032209;28;20037;-69
2022/10/04 00:50:26;;;;;;;15.65;7.07;;;9.80;99.90;;;;;;5016220;28;20048;-68
2022/10/04 00:52:58;;;;;;;11.38;6.13;;;9.70;99.90;;;;;;5033910;28;20087;-69
2022/10/04 00:55:27;;;;;;;12.40;5.97;;;9.70;99.90;;;;;;5034393;28;20545;-70
2022/10/04 00:57:58;;;;;;;12.27;6.50;;;9.70;99.90;;;;;;5043741;28;20029;-69
2022/10/04 01:00:25;;;;;;;27.15;6.05;;;9.70;99.90;;;;;;5053900;28;20021;-68
2022/10/04 01:03:00;;;;;;;12.45;6.18;;;9.60;99.90;;;;;;5055331;28;20358;-68
2022/10/04 01:05:33;;;;;;;12.90;5.68;;;9.60;99.90;;;;;;5055504;28;20106;-68
2022/10/04 01:08:12;;;;;;;10.93;5.80;;;9.50;99.90;;;;;;5053420;28;20155;-68
2022/10/04 01:10:47;;;;;;;8.75;5.13;;;9.50;99.90;;;;;;5054080;28;20493;-69
2022/10/04 01:13:25;;;;;;;9.57;5.72;;;9.50;99.90;;;;;;5055337;28;20466;-69
2022/10/04 01:16:13;;;;;;;10.70;5.32;;;9.50;99.90;;;;;;5055228;28;20021;-69
2022/10/04 01:18:39;;;;;;;10.70;5.40;;;9.40;99.90;;;;;;5055477;28;20039;-68
2022/10/04 01:21:19;;;;;;;11.32;5.93;;;9.50;99.90;;;;;;5054139;28;20029;-68
2022/10/04 01:23:56;;;;;;;10.90;6.13;;;9.40;99.90;;;;;;5053534;28;20021;-69
2022/10/04 01:26:37;;;;;;;9.70;5.32;;;9.40;99.90;;;;;;5055079;28;20025;-68
2022/10/04 01:29:25;;;;;;;9.90;5.50;;;9.30;99.90;;;;;;5054653;28;20021;-69
2022/10/04 01:31:53;;;;;;;11.07;5.93;;;9.20;99.90;;;;;;5055007;28;20040;-69
2022/10/04 01:34:21;;;;;;;10.70;5.65;;;9.10;99.90;;;;;;5053872;28;20029;-69
2022/10/04 01:36:48;;;;;;;10.38;5.40;;;9.10;99.90;;;;;;5055689;28;20465;-69
2022/10/04 01:39:15;;;;;;;9.20;5.78;;;9.00;99.90;;;;;;5060186;28;20420;-69
2022/10/04 01:41:52;;;;;;;13.05;5.75;;;9.00;99.90;;;;;;5057917;28;20035;-69
2022/10/04 01:44:32;;;;;;;9.20;5.75;;;9.00;99.90;;;;;;5055117;28;20032;-69
2022/10/04 01:47:08;;;;;;;8.60;5.10;;;9.00;99.90;;;;;;5053684;28;20040;-69
2022/10/04 01:49:37;;;;;;;13.50;5.50;;;9.00;99.90;;;;;;5053242;28;20555;-69
2022/10/04 01:52:08;;;;;;;12.00;5.65;;;9.10;99.90;;;;;;5053676;28;20032;-69
2022/10/04 01:54:40;;;;;;;11.45;6.65;;;9.10;99.90;;;;;;5054170;28;20478;-69
2022/10/04 01:57:10;;;;;;;11.23;6.00;;;9.20;99.90;;;;;;5055639;28;20113;-69
2022/10/04 02:00:00;;;;;;;11.10;6.05;;;9.10;99.90;;;;;;5055913;28;20021;-69
2022/10/04 02:02:35;;;;;;;14.40;6.35;;;8.90;99.90;;;;;;5055177;28;20020;-69
2022/10/04 02:05:05;;;;;;;11.80;6.07;;;8.90;99.90;;;;;;5054955;28;20033;-68
2022/10/04 02:07:32;;;;;;;10.13;6.15;;;8.90;99.90;;;;;;5057083;28;20017;-70
2022/10/04 02:10:08;;;;;;;11.30;6.68;;;8.80;99.90;;;;;;5054117;28;20051;-69
2022/10/04 02:12:34;;;;;;;9.30;6.25;;;8.70;99.90;;;;;;5034586;28;20032;-69
2022/10/04 02:15:02;;;;;;;13.02;6.85;;;8.60;99.90;;;;;;5033999;28;20057;-69
2022/10/04 02:17:36;;;;;;;13.98;6.65;;;8.60;99.90;;;;;;5036551;28;20089;-69
2022/10/04 02:20:13;;;;;;;15.57;6.95;;;8.60;99.90;;;;;;5037084;28;20033;-69
2022/10/04 02:22:40;;;;;;;12.30;6.15;;;8.60;99.90;;;;;;5036215;28;20025;-69
2022/10/04 02:25:06;;;;;;;17.92;7.40;;;8.80;99.90;;;;;;5035671;28;20044;-69
2022/10/04 02:27:32;;;;;;;10.57;7.03;;;8.80;99.90;;;;;;5036383;28;20033;-69
2022/10/04 02:30:07;;;;;;;10.47;6.50;;;8.80;99.90;;;;;;5043254;28;20013;-69
2022/10/04 02:35:18;;;;;;;12.40;6.10;;;8.90;99.90;;;;;;5058345;28;20040;-69
2022/10/04 02:37:47;;;;;;;13.52;6.00;;;9.00;99.90;;;;;;5058198;28;20116;-68
2022/10/04 02:40:17;;;;;;;12.52;5.90;;;8.90;99.90;;;;;;5059996;28;20021;-69
2022/10/04 02:43:02;;;;;;;9.63;6.03;;;8.90;99.90;;;;;;5057333;28;20071;-69
2022/10/04 02:45:32;;;;;;;10.30;6.10;;;8.90;99.90;;;;;;5056013;28;20493;-69
2022/10/04 02:48:04;;;;;;;11.63;6.70;;;9.00;99.90;;;;;;5057682;28;20074;-69
2022/10/04 02:50:35;;;;;;;14.52;6.72;;;8.90;99.90;;;;;;5058018;28;20115;-69
2022/10/04 02:53:31;;;;;;;11.05;6.05;;;8.90;99.90;;;;;;5057971;28;20055;-69
2022/10/04 02:55:57;;;;;;;8.20;6.10;;;9.00;99.90;;;;;;5056693;28;20021;-68
2022/10/04 02:58:24;;;;;;;13.07;6.28;;;9.00;99.90;;;;;;5057622;28;20371;-69
2022/10/04 03:00:58;;;;;;;11.45;5.97;;;8.90;99.90;;;;;;5057779;28;20056;-69
2022/10/04 03:03:37;;;;;;;9.40;6.10;;;8.80;99.90;;;;;;5057658;28;20028;-69
2022/10/04 03:06:07;;;;;;;10.68;6.38;;;8.80;99.90;;;;;;5056108;28;20025;-69
2022/10/04 03:08:43;;;;;;;11.65;6.43;;;8.90;99.90;;;;;;5058203;28;20017;-69
2022/10/04 03:11:12;;;;;;;12.77;6.75;;;8.80;99.90;;;;;;5057915;28;20481;-69
2022/10/04 03:13:43;;;;;;;13.88;6.82;;;8.80;99.90;;;;;;5057128;28;20024;-69
2022/10/04 03:16:08;;;;;;;11.73;5.93;;;8.90;99.90;;;;;;5056239;28;20474;-69
2022/10/04 03:18:36;;;;;;;13.67;7.03;;;8.90;99.90;;;;;;5057898;28;20064;-71
2022/10/04 03:21:06;;;;;;;11.48;6.32;;;8.90;99.90;;;;;;5056464;28;20025;-71
2022/10/04 03:23:32;;;;;;;10.68;6.32;;;8.90;99.90;;;;;;5055849;28;20025;-71
2022/10/04 03:26:23;;;;;;;10.88;6.32;;;8.80;99.90;;;;;;5055954;28;20100;-71
2022/10/04 03:28:49;;;;;;;13.70;6.50;;;8.80;99.90;;;;;;5055585;28;20524;-71
2022/10/04 03:31:15;;;;;;;10.07;6.50;;;8.80;99.90;;;;;;5055818;28;20025;-70
2022/10/04 03:33:43;;;;;;;10.65;6.10;;;8.80;99.90;;;;;;5055258;28;20377;-70
2022/10/04 03:36:13;;;;;;;10.50;5.53;;;8.80;99.90;;;;;;5056211;28;20028;-69
2022/10/04 03:38:39;;;;;;;9.02;5.50;;;9.00;99.90;;;;;;5036400;28;20026;-70
2022/10/04 03:41:06;;;;;;;14.07;6.85;;;9.10;99.90;;;;;;5036182;28;20025;-70
2022/10/04 03:43:33;;;;;;;;;;;9.00;99.90;;;;;;5034529;28;20041;-68
2022/10/04 03:46:00;;;;;;;10.20;6.40;;;9.00;99.90;;;;;;5035196;28;19913;-70
2022/10/04 03:48:33;;;;;;;13.48;6.30;;;8.90;99.90;;;;;;5035725;28;20079;-70
2022/10/04 03:51:01;;;;;;;11.50;6.35;;;8.90;99.90;;;;;;5034200;28;20095;-70
2022/10/04 03:53:35;;;;;;;14.48;6.80;;;8.80;99.90;;;;;;5035874;28;20021;-70
2022/10/04 03:56:01;;;;;;;13.10;6.75;;;8.80;99.90;;;;;;5035953;28;20115;-70
2022/10/04 03:58:30;;;;;;;11.68;6.40;;;8.70;99.90;;;;;;5037071;28;20036;-70
2022/10/04 04:01:22;;;;;;;10.20;5.80;;;8.60;99.90;;;;;;5036808;28;20025;-70
2022/10/04 04:04:00;;;;;;;15.68;6.75;;;8.70;99.90;;;;;;5034684;28;20032;-70
2022/10/04 04:06:42;;;;;;;10.60;5.88;;;8.60;99.90;;;;;;5038719;28;20061;-70
2022/10/04 04:09:15;;;;;;;12.27;6.10;;;8.70;99.90;;;;;;5055877;28;20029;-70
2022/10/04 04:11:41;;;;;;;9.85;6.45;;;8.80;99.90;;;;;;5054456;28;20401;-71
2022/10/04 04:14:09;;;;;;;13.80;6.70;;;8.80;99.90;;;;;;5053755;28;20048;-71
2022/10/04 04:16:36;;;;;;;9.50;6.18;;;8.70;99.90;;;;;;5054045;28;20033;-71
2022/10/04 04:19:09;;;;;;;13.07;5.60;;;8.70;99.90;;;;;;5055076;28;20033;-71
2022/10/04 04:21:35;;;;;;;10.20;6.25;;;8.70;99.90;;;;;;5056864;28;20024;-70
2022/10/04 04:24:22;;;;;;;9.97;5.50;;;8.70;99.90;;;;;;5055950;28;20033;-71
2022/10/04 04:26:55;;;;;;;9.52;6.00;;;8.60;99.90;;;;;;5056673;28;20078;-70
2022/10/04 04:29:44;;;;;;;11.82;6.43;;;8.60;99.90;;;;;;5053743;28;20128;-69
2022/10/04 04:32:15;;;;;;;14.23;6.35;;;8.60;99.90;;;;;;5054984;28;20028;-70
2022/10/04 04:35:06;;;;;;;10.30;5.95;;;8.60;99.90;;;;;;5053717;28;20021;-70
2022/10/04 04:37:37;;;;;;;8.48;5.07;;;8.70;99.90;;;;;;5055207;28;20021;-70
2022/10/04 04:40:19;;;;;;;10.05;5.75;;;8.60;99.90;;;;;;5055133;28;20021;-69
2022/10/04 04:42:46;;;;;;;12.75;5.72;;;8.70;99.90;;;;;;5055328;28;20539;-73
2022/10/04 04:45:16;;;;;;;9.93;6.40;;;8.70;99.90;;;;;;5036971;28;20482;-69
2022/10/04 04:47:45;;;;;;;12.35;6.65;;;8.70;99.90;;;;;;5035264;28;20482;-69
2022/10/04 04:50:16;;;;;;;14.18;6.40;;;8.70;99.90;;;;;;5035056;28;20061;-69
2022/10/04 04:52:52;;;;;;;10.10;5.70;;;8.70;99.90;;;;;;5054181;28;20025;-69
2022/10/04 04:55:25;;;;;;;9.77;5.63;;;8.90;99.90;;;;;;5058145;28;20021;-69
2022/10/04 04:57:54;;;;;;;10.05;5.50;;;9.10;99.90;;;;;;5055898;28;20043;-70
2022/10/04 05:00:27;;;;;;;10.00;6.07;;;9.00;99.90;;;;;;5059215;28;20032;-69
2022/10/04 05:02:58;;;;;;;9.95;5.03;;;8.90;99.90;;;;;;5056776;28;20033;-70
2022/10/04 05:05:25;;;;;;;12.93;5.80;;;8.90;99.90;;;;;;5055919;28;20116;-70
2022/10/04 05:08:14;;;;;;;9.30;5.38;;;8.80;99.90;;;;;;5053647;28;20029;-70
2022/10/04 05:10:50;;;;;;;11.35;6.22;;;8.80;99.90;;;;;;5053180;28;20021;-69
2022/10/04 05:13:16;;;;;;;11.07;5.65;;;8.80;99.90;;;;;;5034084;28;20056;-69
2022/10/04 05:15:42;;;;;;;;;;;8.70;99.90;;;;;;5035149;28;20029;-70
2022/10/04 05:18:27;;;;;;;11.90;6.60;;;8.70;99.90;;;;;;5034158;28;19931;-70
2022/10/04 05:20:55;;;;;;;11.35;6.07;;;8.60;99.90;;;;;;5065927;23;20053;-68
2022/10/04 05:23:20;;;;;;;9.02;5.93;;;8.60;99.90;;;;;;5012203;28;20025;-68
2022/10/04 05:25:48;;;;;;;9.30;6.00;;;8.90;99.90;;;;;;5028594;28;20033;-68
2022/10/04 05:28:14;;;;;;;9.05;5.95;;;8.80;99.90;;;;;;5013234;28;20109;-69
2022/10/04 05:30:40;;;;;;;8.73;5.78;;;8.80;99.90;;;;;;5013137;28;20453;-68
2022/10/04 05:33:45;;;;;;;11.43;6.17;;;8.70;99.90;;;;;;5012471;28;20045;-68
2022/10/04 05:36:12;;;;;;;14.05;6.35;;;8.60;99.90;;;;;;4992970;28;20446;-69
2022/10/04 05:38:46;;;;;;;13.80;6.60;;;8.50;99.90;;;;;;4975286;28;20018;-67
2022/10/04 05:41:43;;;;;;;9.13;5.93;;;8.50;99.90;;;;;;4991977;28;20038;-68
2022/10/04 05:44:28;;;;;;;9.93;6.50;;;8.40;99.90;;;;;;4991827;28;20022;-68
2022/10/04 05:47:01;;;;;;;10.57;5.97;;;8.40;99.90;;;;;;4991407;28;20368;-69
2022/10/04 05:49:42;;;;;;;10.23;6.57;;;8.30;99.90;;;;;;4990908;28;20038;-69
2022/10/04 05:52:37;;;;;;;13.85;6.88;;;8.40;99.90;;;;;;4991610;28;20050;-68
2022/10/04 05:55:25;;;;;;;10.02;5.93;;;8.40;99.90;;;;;;4989236;28;20100;-68
2022/10/04 05:58:05;;;;;;;11.57;6.13;;;8.40;99.90;;;;;;4991919;28;20112;-67
2022/10/04 06:00:55;;;;;;;9.65;6.43;;;8.50;99.90;;;;;;4991228;28;20043;-68
2022/10/04 06:03:31;;;;;;;10.73;6.20;;;8.50;99.90;;;;;;4995403;28;20030;-67
2022/10/04 06:06:05;;;;;;;12.35;7.05;;;8.50;99.90;;;;;;4997736;28;20414;-68
2022/10/04 06:08:49;;;;;;;17.58;7.45;;;8.50;99.90;;;;;;5015782;28;20501;-68
2022/10/04 06:11:33;;;;;;;9.07;6.60;;;8.50;99.90;;;;;;5016435;28;20045;-67
2022/10/04 06:14:17;;;;;;;12.00;6.18;;;8.60;99.90;;;;;;5015672;28;20137;-67
2022/10/04 06:16:57;;;;;;;11.82;6.25;;;8.80;99.90;;;;;;5017158;28;20026;-67
2022/10/04 06:19:41;;;;;;;10.40;5.85;;;8.90;99.90;;;;;;5017628;28;20058;-68
2022/10/04 06:22:18;;;;;;;8.98;6.10;;;9.00;99.90;;;;;;5017112;28;20041;-69
2022/10/04 06:24:59;;;;;;;9.60;6.18;;;9.10;99.90;;;;;;5017391;28;20498;-68
2022/10/04 06:27:32;;;;;;;10.20;6.28;;;9.20;99.90;;;;;;5016211;28;20029;-67
2022/10/04 06:30:01;;;;;;;11.05;7.38;;;9.30;99.90;;;;;;5016898;28;20025;-69
2022/10/04 06:32:55;;;;;;;10.80;6.22;;;9.30;99.90;;;;;;5015540;28;20141;-67
2022/10/04 06:35:50;;;;;;;8.95;6.30;;;9.40;99.90;;;;;;5017349;28;20478;-68
2022/10/04 06:38:39;;;;;;;9.13;6.43;;;9.30;99.90;;;;;;5017042;28;20029;-67
2022/10/04 06:41:42;;;;;;;14.50;7.15;;;9.30;99.90;;;;;;5015364;28;20483;-69
2022/10/04 06:44:31;;;;;;;11.40;6.50;;;9.50;99.90;;;;;;5016695;28;20030;-69
2022/10/04 06:47:08;;;;;;;11.88;5.72;;;9.50;99.90;;;;;;5016798;28;20557;-69
2022/10/04 06:50:00;;;;;;;24.80;13.73;;;9.40;99.90;;;;;;5016904;28;20029;-68
2022/10/04 06:52:49;;;;;;;13.68;7.88;;;9.40;99.90;;;;;;5016273;28;20024;-68
2022/10/04 06:55:27;;;;;;;13.85;7.38;;;9.40;99.90;;;;;;5015387;28;20053;-68
2022/10/04 06:58:15;;;;;;;16.35;7.00;;;9.40;99.90;;;;;;5015866;28;20032;-68
2022/10/04 07:00:48;;;;;;;;;;;9.50;99.90;;;;;;5015562;28;20030;-68
2022/10/04 07:03:22;;;;;;;10.98;6.55;;;9.60;99.90;;;;;;5016627;28;20293;-67
2022/10/04 07:06:04;;;;;;;11.65;6.75;;;9.60;99.90;;;;;;5015747;28;20423;-68
2022/10/04 07:08:37;;;;;;;13.07;6.75;;;9.60;99.90;;;;;;5014705;28;20033;-68
2022/10/04 07:11:24;;;;;;;11.90;6.82;;;9.60;99.90;;;;;;5016457;28;20026;-69
2022/10/04 07:14:01;;;;;;;15.75;8.15;;;9.60;99.90;;;;;;5014391;28;20551;-68
2022/10/04 07:16:48;;;;;;;16.80;6.80;;;9.80;99.90;;;;;;5015955;28;20080;-70
2022/10/04 07:19:30;;;;;;;14.80;7.40;;;10.00;99.90;;;;;;5016156;28;20544;-69
2022/10/04 07:22:09;;;;;;;11.93;6.88;;;10.00;99.90;;;;;;5015412;28;20091;-68
2022/10/04 07:25:16;;;;;;;15.18;7.53;;;10.00;99.90;;;;;;5016129;28;20104;-68
2022/10/04 07:30:50;;;;;;;10.18;6.47;;;10.00;99.90;;;;;;5015873;28;20437;-68
2022/10/04 07:33:20;;;;;;;12.02;7.07;;;10.20;99.90;;;;;;5014202;28;20375;-67
2022/10/04 07:36:06;;;;;;;11.88;7.68;;;10.20;99.90;;;;;;5015521;28;20030;-69
2022/10/04 07:38:35;;;;;;;10.13;7.85;;;10.30;99.90;;;;;;5014844;28;20026;-67
2022/10/04 07:41:24;;;;;;;12.70;7.72;;;10.40;99.90;;;;;;5015603;28;20029;-72
2022/10/04 07:43:58;;;;;;;15.30;7.43;;;10.50;99.90;;;;;;5014042;28;20030;-72
2022/10/04 07:46:36;;;;;;;12.02;7.53;;;10.70;99.90;;;;;;5015532;28;20052;-72
2022/10/04 07:49:02;;;;;;;12.32;7.40;;;10.70;99.90;;;;;;5013844;28;20372;-71
2022/10/04 07:52:01;;;;;;;14.45;7.93;;;10.80;99.90;;;;;;5010654;28;20034;-72
2022/10/04 07:54:47;;;;;;;12.90;7.45;;;11.10;99.90;;;;;;4995838;28;20105;-72
2022/10/04 07:57:15;;;;;;;13.82;7.20;;;11.00;99.90;;;;;;4995112;28;20111;-72
2022/10/04 08:00:10;;;;;;;11.27;7.90;;;11.10;99.90;;;;;;4996371;28;20037;-72
2022/10/04 08:03:00;;;;;;;10.30;7.20;;;11.30;99.90;;;;;;4996035;28;20391;-72
2022/10/04 08:05:36;;;;;;;12.93;7.70;;;11.30;99.90;;;;;;4996348;28;20018;-72
2022/10/04 08:08:39;;;;;;;15.30;8.52;;;11.40;99.90;;;;;;4995811;28;20027;-72
2022/10/04 08:11:36;;;;;;;13.27;8.20;;;10.80;99.90;;;;;;4995936;28;20039;-71
2022/10/04 08:14:15;;;;;;;11.43;8.00;;;10.90;99.90;;;;;;4994477;28;20023;-71
2022/10/04 08:17:06;;;;;;;12.15;7.40;;;11.20;99.90;;;;;;4996257;28;20117;-71
2022/10/04 08:19:39;;;;;;;13.88;8.50;;;11.40;99.90;;;;;;5012534;28;20026;-71
2022/10/04 08:22:46;;;;;;;12.77;8.27;;;11.50;99.90;;;;;;5013486;28;20034;-72
2022/10/04 08:25:26;;;;;;;15.52;8.52;;;11.60;99.90;;;;;;5002014;28;20038;-72
2022/10/04 08:30:53;;;;;;;14.25;8.48;;;11.90;99.90;;;;;;5014619;28;20092;-73
2022/10/04 08:33:48;;;;;;;14.73;7.68;;;12.30;99.90;;;;;;5013061;28;20133;-71
2022/10/04 08:36:30;;;;;;;14.27;7.68;;;12.40;99.90;;;;;;5004393;28;20037;-71
2022/10/04 08:38:59;;;;;;;16.77;7.90;;;12.60;99.90;;;;;;5014305;28;20040;-72
2022/10/04 08:41:41;;;;;;;12.02;7.50;;;12.80;99.90;;;;;;5014346;28;20053;-72
2022/10/04 08:44:18;;;;;;;15.35;7.68;;;12.70;99.90;;;;;;5013143;28;20022;-72
2022/10/04 08:47:05;;;;;;;12.93;7.45;;;12.80;99.90;;;;;;5014379;28;20034;-72
2022/10/04 08:49:37;;;;;;;13.23;7.97;;;12.90;99.90;;;;;;5016220;28;20064;-72
2022/10/04 08:52:40;;;;;;;13.32;8.80;;;13.40;99.90;;;;;;5015397;28;20121;-72
2022/10/04 08:55:49;;;;;;;14.55;8.95;;;13.20;99.90;;;;;;5014467;28;20150;-72
2022/10/04 08:59:05;;;;;;;12.18;8.18;;;13.40;99.90;;;;;;5014933;28;20545;-73
2022/10/04 09:02:07;;;;;;;11.98;9.48;;;14.50;99.90;;;;;;5012624;28;20033;-72
2022/10/04 09:04:44;;;;;;;16.75;9.77;;;16.00;99.90;;;;;;5014734;28;20061;-72
2022/10/04 09:07:45;;;;;;;10.52;8.68;;;16.70;99.90;;;;;;5013962;28;20033;-70
2022/10/04 09:10:32;;;;;;;15.98;9.25;;;16.10;99.90;;;;;;4994641;28;20019;-72
2022/10/04 09:13:23;;;;;;;14.68;9.23;;;15.50;99.90;;;;;;4994848;28;20124;-72
2022/10/04 09:16:02;;;;;;;22.10;10.27;;;15.50;99.90;;;;;;4995198;28;20029;-72
2022/10/04 09:18:54;;;;;;;16.98;9.90;;;15.40;99.90;;;;;;4995470;28;20521;-72
2022/10/04 09:21:35;;;;;;;12.68;9.35;;;15.60;99.90;;;;;;4993951;28;20041;-72
2022/10/04 09:24:32;;;;;;;16.63;10.50;;;16.40;99.90;;;;;;4996507;28;20057;-72
2022/10/04 09:27:11;;;;;;;24.95;10.40;;;15.50;99.90;;;;;;4990788;28;20049;-72
2022/10/04 09:30:20;;;;;;;17.20;10.25;;;15.40;99.90;;;;;;4996308;28;20582;-73
2022/10/04 09:32:58;;;;;;;14.82;11.75;;;16.50;99.90;;;;;;4979154;28;20046;-72
2022/10/04 09:35:52;;;;;;;15.55;10.68;;;16.10;99.90;;;;;;5008854;28;20023;-72
2022/10/04 09:38:30;;;;;;;19.98;11.30;;;15.60;99.90;;;;;;5002359;28;20037;-72
2022/10/04 09:41:20;;;;;;;14.93;10.70;;;16.40;99.90;;;;;;5011395;28;20026;-72
2022/10/04 09:44:11;;;;;;;14.18;10.00;;;16.60;99.90;;;;;;5013583;28;20025;-72
2022/10/04 09:46:46;;;;;;;12.70;9.82;;;17.80;99.90;;;;;;5013893;28;20104;-72
2022/10/04 09:49:39;;;;;;;15.65;9.73;;;20.30;99.90;;;;;;5012513;28;20025;-73
2022/10/04 09:52:19;;;;;;;14.07;9.70;;;22.00;99.10;;;;;;5013352;28;20029;-73
2022/10/04 09:55:04;;;;;;;13.85;9.15;;;23.70;95.80;;;;;;5014057;28;20026;-72
2022/10/04 09:57:45;;;;;;;12.57;7.40;;;24.80;93.30;;;;;;5013078;28;20026;-72
2022/10/04 10:00:32;;;;;;;10.10;7.63;;;26.00;90.80;;;;;;5013213;28;20037;-72
2022/10/04 10:03:17;;;;;;;9.53;7.07;;;27.10;87.70;;;;;;5012106;28;20030;-72
2022/10/04 10:05:48;;;;;;;10.65;6.97;;;27.80;83.20;;;;;;5012947;28;20037;-72
2022/10/04 10:08:29;;;;;;;11.07;6.70;;;27.80;81.50;;;;;;5011494;28;20072;-73
2022/10/04 10:14:02;;;;;;;9.10;5.88;;;27.60;79.90;;;;;;5013156;28;20088;-72
2022/10/04 10:16:53;;;;;;;8.25;6.43;;;28.00;78.10;;;;;;5011647;28;20030;-72
2022/10/04 10:19:47;;;;;;;11.20;6.03;;;28.20;77.60;;;;;;5012893;28;20030;-72
2022/10/04 10:22:50;;;;;;;7.60;5.55;;;28.50;76.40;;;;;;5011597;28;20034;-72
2022/10/04 10:25:47;;;;;;;8.23;6.28;;;28.90;75.40;;;;;;5011510;28;20028;-72
2022/10/04 10:28:25;;;;;;;7.95;6.05;;;29.50;73.50;;;;;;5011547;28;20061;-72
2022/10/04 10:31:14;;;;;;;8.50;6.10;;;30.10;72.30;;;;;;5013151;28;20030;-72
2022/10/04 10:34:01;;;;;;;9.65;6.50;;;27.90;73.10;;;;;;5012809;28;20584;-72
2022/10/04 10:36:33;;;;;;;9.68;5.63;;;25.50;78.40;;;;;;5027223;28;20132;-72
2022/10/04 10:39:29;;;;;;;7.07;6.10;;;27.30;77.60;;;;;;5012948;28;20475;-71
2022/10/04 10:42:18;;;;;;;9.02;6.05;;;28.90;74.10;;;;;;5012759;28;20057;-72
2022/10/04 10:45:08;;;;;;;9.13;6.78;;;26.90;75.80;;;;;;4993383;28;20165;-72
2022/10/04 10:47:58;;;;;;;11.77;6.85;;;24.90;79.40;;;;;;4993686;28;20053;-72
2022/10/04 10:50:57;;;;;;;8.40;6.20;;;25.90;79.00;;;;;;4996395;28;20117;-73
2022/10/04 10:53:40;;;;;;;8.77;6.45;;;24.60;79.00;;;;;;4997780;28;20105;-71
2022/10/04 10:56:22;;;;;;;8.32;6.40;;;23.40;82.80;;;;;;5016816;28;20022;-72
2022/10/04 10:59:26;;;;;;;11.55;7.25;;;22.00;87.30;;;;;;5016035;28;20022;-71
2022/10/04 11:02:21;;;;;;;12.43;7.40;;;20.80;90.80;;;;;;5023298;28;20050;-72
2022/10/04 11:05:24;;;;;;;10.27;7.97;;;19.90;92.90;;;;;;5017071;28;20084;-72
2022/10/04 11:08:12;;;;;;;11.00;7.95;;;19.10;94.60;;;;;;5015796;28;20042;-72
2022/10/04 11:11:00;;;;;;;12.18;7.82;;;18.50;95.60;;;;;;5019387;28;20048;-71
2022/10/04 11:13:41;;;;;;;9.25;7.65;;;17.90;98.00;;;;;;5017789;28;20026;-71
2022/10/04 11:16:36;;;;;;;10.10;7.85;;;17.60;99.90;;;;;;5015590;28;20465;-71
2022/10/04 11:19:14;;;;;;;10.35;7.53;;;17.20;99.90;;;;;;5015965;28;20030;-72
2022/10/04 11:21:55;;;;;;;13.45;9.05;;;17.30;99.90;;;;;;5016449;28;20044;-72
2022/10/04 11:24:55;;;;;;;11.07;8.10;;;17.10;99.90;;;;;;5016943;28;20030;-72
2022/10/04 11:27:38;;;;;;;10.90;6.95;;;16.70;99.90;;;;;;5017480;28;20022;-71
2022/10/04 11:30:07;;;;;;;10.23;7.38;;;16.70;99.90;;;;;;5015026;28;20018;-70
2022/10/04 11:33:08;;;;;;;7.80;6.65;;;16.50;99.90;;;;;;5016350;28;20516;-72
2022/10/04 11:35:49;;;;;;;13.07;7.30;;;16.50;99.90;;;;;;5015531;28;20104;-72
2022/10/04 11:38:34;;;;;;;13.13;6.80;;;16.60;99.90;;;;;;5031670;28;20026;-72
2022/10/04 11:41:32;;;;;;;9.82;7.55;;;16.40;99.90;;;;;;5011853;28;20022;-72
2022/10/04 11:44:51;;;;;;;14.73;7.85;;;16.30;99.90;;;;;;5001596;28;20124;-72
2022/10/04 11:47:38;;;;;;;13.07;7.35;;;16.40;99.90;;;;;;4957989;28;20402;-72
2022/10/04 11:50:28;;;;;;;10.43;7.00;;;16.40;99.90;;;;;;5016963;28;20033;-72
2022/10/04 11:53:06;;;;;;;18.13;8.30;;;16.30;99.90;;;;;;5014480;28;20084;-72
2022/10/04 11:56:04;;;;;;;10.50;8.05;;;16.50;99.90;;;;;;5014102;28;20383;-72
2022/10/04 11:58:42;;;;;;;12.75;7.80;;;16.60;99.90;;;;;;5013902;28;20038;-72
2022/10/04 12:01:10;;;;;;;12.15;8.40;;;16.60;99.90;;;;;;5015667;28;20069;-72
2022/10/04 12:03:53;;;;;;;9.20;7.32;;;16.80;99.90;;;;;;5015235;28;20030;-72
2022/10/04 12:06:33;;;;;;;12.52;8.13;;;16.60;99.90;;;;;;5013818;28;20045;-72
2022/10/04 12:09:47;;;;;;;11.23;7.80;;;16.80;99.90;;;;;;5013845;28;20108;-72
2022/10/04 12:12:36;;;;;;;13.57;8.52;;;16.90;99.90;;;;;;5010272;28;20053;-71
2022/10/04 12:15:29;;;;;;;10.65;7.20;;;16.90;99.90;;;;;;5015791;28;20018;-72
2022/10/04 12:18:25;;;;;;;10.43;7.93;;;16.90;99.90;;;;;;5014000;28;20022;-70
2022/10/04 12:21:20;;;;;;;12.68;7.85;;;16.80;99.90;;;;;;5013327;28;20030;-71
2022/10/04 12:23:52;;;;;;;11.07;7.32;;;16.90;99.90;;;;;;5010635;28;20029;-70
2022/10/04 12:26:48;;;;;;;12.73;6.90;;;17.00;99.90;;;;;;5014766;28;20037;-70
2022/10/04 12:29:32;;;;;;;8.70;6.35;;;17.20;99.90;;;;;;5011299;28;20022;-70
2022/10/04 12:32:03;;;;;;;11.48;6.75;;;17.20;99.90;;;;;;5011010;28;20360;-70
2022/10/04 12:34:58;;;;;;;10.90;6.80;;;17.30;99.90;;;;;;5012328;28;20022;-71
2022/10/04 12:37:36;;;;;;;14.70;7.20;;;17.30;99.90;;;;;;5012312;28;20491;-69
2022/10/04 12:40:08;;;;;;;10.43;7.25;;;17.30;99.90;;;;;;5012689;28;20025;-71
2022/10/04 12:42:46;;;;;;;8.90;6.63;;;17.30;99.90;;;;;;5013146;28;20112;-69
2022/10/04 12:45:33;;;;;;;13.55;7.55;;;17.30;99.90;;;;;;5014067;28;20433;-70
2022/10/04 12:48:20;;;;;;;10.48;6.75;;;17.40;99.90;;;;;;5014689;28;20592;-71
2022/10/04 12:51:03;;;;;;;10.27;7.05;;;17.40;99.90;;;;;;5013004;28;20022;-75
2022/10/04 12:53:33;;;;;;;10.25;6.30;;;17.30;99.90;;;;;;5013631;28;20358;-74
2022/10/04 12:56:21;;;;;;;11.05;6.95;;;17.30;99.90;;;;;;5013083;28;20029;-72
2022/10/04 12:59:05;;;;;;;11.85;6.40;;;17.40;99.90;;;;;;5012967;28;20036;-71
2022/10/04 13:02:02;;;;;;;10.20;6.38;;;17.60;99.90;;;;;;5014201;28;20033;-72
2022/10/04 13:04:46;;;;;;;10.18;6.35;;;17.70;99.90;;;;;;5005058;28;20041;-72
2022/10/04 13:07:37;;;;;;;11.48;7.07;;;17.90;99.90;;;;;;5012658;28;20030;-72
2022/10/04 13:10:43;;;;;;;8.73;6.18;;;18.20;99.90;;;;;;5012547;28;20020;-71
2022/10/04 13:13:41;;;;;;;10.00;6.07;;;18.20;99.90;;;;;;5014286;28;20033;-74
2022/10/04 13:16:34;;;;;;;12.95;6.10;;;18.10;99.90;;;;;;5012492;28;20493;-73
2022/10/04 13:19:23;;;;;;;10.38;6.05;;;18.10;99.90;;;;;;5011948;28;20025;-71
2022/10/04 13:22:03;;;;;;;9.35;5.80;;;18.00;99.90;;;;;;5010825;28;20041;-70
2022/10/04 13:25:00;;;;;;;9.98;6.40;;;18.00;99.90;;;;;;5013548;28;20057;-71
2022/10/04 13:27:50;;;;;;;10.43;5.63;;;18.00;99.90;;;;;;5012199;28;20026;-71
2022/10/04 13:30:46;;;;;;;9.13;5.40;;;17.80;99.90;;;;;;4993495;28;20027;-71
2022/10/04 13:33:28;;;;;;;9.52;5.47;;;18.00;99.90;;;;;;4994381;28;20019;-74
2022/10/04 13:36:19;;;;;;;6.72;5.00;;;18.00;99.90;;;;;;4994588;28;20026;-72
2022/10/04 13:39:00;;;;;;;10.55;5.47;;;18.00;99.90;;;;;;4983731;28;20030;-72
2022/10/04 13:41:45;;;;;;;8.35;4.80;;;18.20;99.90;;;;;;5013644;28;20080;-71
2022/10/04 13:44:30;;;;;;;7.97;4.72;;;18.30;99.90;;;;;;5012317;28;20033;-71
2022/10/04 13:47:07;;;;;;;7.32;5.30;;;18.30;99.90;;;;;;5013529;28;20030;-71
2022/10/04 13:49:42;;;;;;;11.82;6.53;;;18.30;99.90;;;;;;5013412;28;20204;-73
2022/10/04 13:58:44;;;;;;;8.13;4.97;;;18.30;99.90;;;;;;5013718;28;20450;-72
2022/10/04 14:01:42;;;;;;;10.90;4.90;;;18.20;99.90;;;;;;5013585;28;20466;-72
2022/10/04 14:04:16;;;;;;;12.05;6.22;;;18.20;99.90;;;;;;5013696;28;20018;-72
2022/10/04 14:07:19;;;;;;;7.97;5.20;;;18.20;99.90;;;;;;5013300;28;20030;-72
2022/10/04 14:10:01;;;;;;;9.93;5.85;;;18.20;99.90;;;;;;5011902;28;20030;-73
2022/10/04 14:12:47;;;;;;;10.02;6.30;;;18.10;99.90;;;;;;5013979;28;20038;-74